Time,TemperatureF,DewpointF,PressureIn,WindDirection,WindDirectionDegrees,WindSpeedMPH,WindSpeedGustMPH,Humidity,HourlyPrecipIn,Conditions,Clouds,dailyrainin,SolarRadiationWatts/m^2,SoftwareType,DateUTC
2013-09-10 00:03:00,70.0,70.0,-100.00,SW,216,0.0,4.0,99,0.00,,,0.03,0.000000,,2013-09-10 05:03:00,
2013-09-10 00:43:00,68.0,68.0,-100.00,WSW,244,0.0,2.0,99,0.00,,,0.02,0.000000,,2013-09-10 05:43:00,
2013-09-10 00:53:00,68.0,68.0,-100.00,WSW,244,0.0,2.0,99,0.00,,,0.02,0.000000,,2013-09-10 05:53:00,
2013-09-10 01:03:00,68.0,68.0,-100.00,WSW,244,0.0,2.0,99,0.00,,,0.02,0.000000,,2013-09-10 06:03:00,
2013-09-10 01:43:00,71.0,71.0,-100.00,SW,231,4.0,7.0,100,0.00,,,0.02,0.000000,,2013-09-10 06:43:00,
2013-09-10 01:52:00,71.0,71.0,-100.00,SW,231,4.0,7.0,100,0.00,,,0.02,0.000000,,2013-09-10 06:52:00,
2013-09-10 02:01:00,71.0,71.0,-100.00,SW,231,4.0,7.0,100,0.00,,,0.02,0.000000,,2013-09-10 07:01:00,
2013-09-10 02:42:00,69.0,68.0,-100.00,WSW,243,3.0,8.0,96,0.00,,,0.02,0.000000,,2013-09-10 07:42:00,
2013-09-10 02:52:00,69.0,68.0,-100.00,WSW,243,3.0,8.0,96,0.00,,,0.02,0.000000,,2013-09-10 07:52:00,
2013-09-10 03:02:00,69.0,68.0,-100.00,WSW,243,3.0,8.0,96,0.00,,,0.02,0.000000,,2013-09-10 08:02:00,
2013-09-10 03:42:00,69.0,68.0,-100.00,WSW,247,4.0,9.0,96,0.00,,,0.02,0.000000,,2013-09-10 08:42:00,
2013-09-10 03:52:00,69.0,68.0,-100.00,WSW,247,4.0,9.0,96,0.00,,,0.02,0.000000,,2013-09-10 08:52:00,
2013-09-10 04:02:00,69.0,68.0,-100.00,WSW,247,4.0,9.0,96,0.00,,,0.02,0.000000,,2013-09-10 09:02:00,
2013-09-10 04:43:00,68.0,67.0,-100.00,SW,233,4.0,8.0,97,0.00,,,0.02,0.000000,,2013-09-10 09:43:00,
2013-09-10 04:54:00,68.0,67.0,-100.00,SW,233,4.0,8.0,97,0.00,,,0.02,0.000000,,2013-09-10 09:54:00,
2013-09-10 05:03:00,68.0,67.0,-100.00,SW,233,4.0,8.0,97,0.00,,,0.02,0.000000,,2013-09-10 10:03:00,
2013-09-10 05:43:00,68.0,67.0,-100.00,SW,223,4.0,8.0,97,0.00,,,0.02,0.000000,,2013-09-10 10:43:00,
2013-09-10 05:53:00,68.0,67.0,-100.00,SW,223,4.0,8.0,97,0.00,,,0.02,0.000000,,2013-09-10 10:53:00,
2013-09-10 06:03:00,68.0,67.0,-100.00,SW,223,4.0,8.0,97,0.00,,,0.02,0.000000,,2013-09-10 11:03:00,
2013-09-10 09:42:00,68.0,67.0,-100.00,WSW,243,3.0,7.0,97,-99.99,,,0.09,97.000000,,2013-09-10 14:42:00,
2013-09-10 09:52:00,68.0,67.0,-100.00,WSW,243,3.0,7.0,97,-99.99,,,0.09,97.000000,,2013-09-10 14:52:00,
2013-09-10 10:02:00,68.0,67.0,-100.00,WSW,243,3.0,7.0,97,-99.99,,,0.09,97.000000,,2013-09-10 15:02:00,
2013-09-10 10:43:00,71.0,68.0,-100.00,WSW,240,4.0,9.0,91,0.00,,,0.09,193.000000,,2013-09-10 15:43:00,
2013-09-10 10:54:00,71.0,68.0,-100.00,WSW,240,4.0,9.0,91,0.00,,,0.09,193.000000,,2013-09-10 15:54:00,
2013-09-10 11:03:00,71.0,68.0,-100.00,WSW,240,4.0,9.0,91,0.00,,,0.09,193.000000,,2013-09-10 16:03:00,
2013-09-10 11:43:00,72.0,68.0,-100.00,SSW,209,4.0,8.0,86,0.00,,,0.09,232.000000,,2013-09-10 16:43:00,
2013-09-10 11:53:00,72.0,68.0,-100.00,SSW,209,4.0,8.0,86,0.00,,,0.09,232.000000,,2013-09-10 16:53:00,
2013-09-10 12:03:00,72.0,68.0,-100.00,SSW,209,4.0,8.0,86,0.00,,,0.09,232.000000,,2013-09-10 17:03:00,
2013-09-10 12:43:00,72.0,68.0,-100.00,SW,224,4.0,8.0,88,0.00,,,0.09,162.000000,,2013-09-10 17:43:00,
2013-09-10 12:53:00,72.0,68.0,-100.00,SW,224,4.0,8.0,88,0.00,,,0.09,162.000000,,2013-09-10 17:53:00,
2013-09-10 13:02:00,72.0,68.0,-100.00,SW,224,4.0,8.0,88,0.00,,,0.09,162.000000,,2013-09-10 18:02:00,
2013-09-10 13:43:00,76.0,69.0,-100.00,SSW,213,3.0,9.0,78,0.00,,,0.09,386.000000,,2013-09-10 18:43:00,
2013-09-10 13:52:00,76.0,69.0,-100.00,SSW,213,3.0,9.0,78,0.00,,,0.09,386.000000,,2013-09-10 18:52:00,
2013-09-10 14:02:00,76.0,69.0,-100.00,SSW,213,3.0,9.0,78,0.00,,,0.09,386.000000,,2013-09-10 19:02:00,
2013-09-10 14:42:00,79.0,68.0,-100.00,WSW,258,4.0,12.0,68,0.00,,,0.09,532.000000,,2013-09-10 19:42:00,
2013-09-10 14:52:00,79.0,68.0,-100.00,WSW,258,4.0,12.0,68,0.00,,,0.09,532.000000,,2013-09-10 19:52:00,
2013-09-10 15:02:00,79.0,68.0,-100.00,WSW,258,4.0,12.0,68,0.00,,,0.09,532.000000,,2013-09-10 20:02:00,
2013-09-10 15:42:00,82.0,66.0,-100.00,WSW,246,6.0,12.0,59,0.00,,,0.09,547.000000,,2013-09-10 20:42:00,
2013-09-10 15:52:00,82.0,66.0,-100.00,WSW,246,6.0,12.0,59,0.00,,,0.09,547.000000,,2013-09-10 20:52:00,
2013-09-10 16:02:00,82.0,66.0,-100.00,WSW,246,6.0,12.0,59,0.00,,,0.09,547.000000,,2013-09-10 21:02:00,
2013-09-10 16:44:00,82.0,65.0,-100.00,WSW,238,4.0,14.0,56,0.00,,,0.09,536.000000,,2013-09-10 21:44:00,
2013-09-10 16:54:00,82.0,65.0,-100.00,WSW,238,4.0,14.0,56,0.00,,,0.09,536.000000,,2013-09-10 21:54:00,
2013-09-10 17:04:00,82.0,65.0,-100.00,WSW,238,4.0,14.0,56,0.00,,,0.09,536.000000,,2013-09-10 22:04:00,
2013-09-10 17:42:00,82.0,63.0,-100.00,WSW,240,6.0,16.0,52,0.00,,,0.09,336.000000,,2013-09-10 22:42:00,
2013-09-10 17:54:00,82.0,63.0,-100.00,WSW,240,6.0,16.0,52,0.00,,,0.09,336.000000,,2013-09-10 22:54:00,
2013-09-10 18:03:00,82.0,63.0,-100.00,WSW,240,6.0,16.0,52,0.00,,,0.09,336.000000,,2013-09-10 23:03:00,
2013-09-10 18:42:00,81.0,61.0,-100.00,WSW,257,3.0,11.0,51,0.00,,,0.09,224.000000,,2013-09-10 23:42:00,
2013-09-10 18:53:00,81.0,61.0,-100.00,WSW,257,3.0,11.0,51,0.00,,,0.09,224.000000,,2013-09-10 23:53:00,
2013-09-10 19:02:00,81.0,61.0,-100.00,WSW,257,3.0,11.0,51,0.00,,,0.09,224.000000,,2013-09-11 00:02:00,
2013-09-10 19:42:00,77.0,58.0,-100.00,West,263,5.0,12.0,52,0.00,,,0.09,116.000000,,2013-09-11 00:42:00,
2013-09-10 19:52:00,77.0,58.0,-100.00,West,263,5.0,12.0,52,0.00,,,0.09,116.000000,,2013-09-11 00:52:00,
2013-09-10 20:02:00,77.0,58.0,-100.00,West,263,5.0,12.0,52,0.00,,,0.09,116.000000,,2013-09-11 01:02:00,
2013-09-10 20:42:00,70.0,59.0,-100.00,WSW,239,1.0,9.0,67,0.00,,,0.09,5.000000,,2013-09-11 01:42:00,
2013-09-10 20:53:00,70.0,59.0,-100.00,WSW,239,1.0,9.0,67,0.00,,,0.09,5.000000,,2013-09-11 01:53:00,
2013-09-10 21:02:00,70.0,59.0,-100.00,WSW,239,1.0,9.0,67,0.00,,,0.09,5.000000,,2013-09-11 02:02:00,
2013-09-10 21:43:00,70.0,59.0,-100.00,West,265,5.0,12.0,69,0.00,,,0.09,0.000000,,2013-09-11 02:43:00,
2013-09-10 21:52:00,70.0,59.0,-100.00,West,265,5.0,12.0,69,0.00,,,0.09,0.000000,,2013-09-11 02:52:00,
2013-09-10 22:02:00,70.0,59.0,-100.00,West,265,5.0,12.0,69,0.00,,,0.09,0.000000,,2013-09-11 03:02:00,
2013-09-10 22:45:00,67.0,60.0,-100.00,West,263,2.0,9.0,77,0.00,,,0.09,0.000000,,2013-09-11 03:45:00,
2013-09-10 22:55:00,67.0,60.0,-100.00,West,263,2.0,9.0,77,0.00,,,0.09,0.000000,,2013-09-11 03:55:00,
2013-09-10 23:04:00,67.0,60.0,-100.00,West,263,2.0,9.0,77,0.00,,,0.09,0.000000,,2013-09-11 04:04:00,
2013-09-10 23:44:00,63.0,59.0,-100.00,SW,229,2.0,4.0,87,0.00,,,0.09,0.000000,,2013-09-11 04:44:00,
2013-09-10 23:54:00,63.0,59.0,-100.00,SW,229,2.0,4.0,87,0.00,,,0.09,0.000000,,2013-09-11 04:54:00,